Time;durP1;ratioP1;P1;durP2;ratioP2;P2;SDS_P1;SDS_P2;PMS_P1;PMS_P2;Temp;Humidity;BMP_temperature;BMP_pressure;BME280_temperature;BME280_humidity;BME280_pressure;Samples;Min_cycle;Max_cycle;Signal;HPM_P1;HPM_P2
2023/05/18 00:00:10;;;;;;;0.10;0.10;;;5.20;99.90;;;;;;6156446;23;20064;-88
2023/05/18 00:02:36;;;;;;;0.10;0.10;;;;;;;;;;6157075;23;20001;-87
2023/05/18 00:05:02;;;;;;;0.00;0.00;;;5.10;99.90;;;;;;6157135;23;20008;-88
2023/05/18 00:07:32;;;;;;;0.10;0.10;;;5.10;99.90;;;;;;6156562;23;20001;-88
2023/05/18 00:09:58;;;;;;;0.10;0.10;;;5.10;99.90;;;;;;6157683;23;20341;-88
2023/05/18 00:12:24;;;;;;;0.10;0.10;;;5.00;99.90;;;;;;6181896;23;20016;-88
2023/05/18 00:14:49;;;;;;;0.10;0.10;;;5.00;99.90;;;;;;6157268;23;20009;-87
2023/05/18 00:17:15;;;;;;;0.00;0.00;;;;;;;;;;6156963;23;20009;-88
2023/05/18 00:19:41;;;;;;;0.10;0.10;;;5.00;99.90;;;;;;6156440;23;20027;-87
2023/05/18 00:22:07;;;;;;;0.10;0.10;;;4.90;99.90;;;;;;6157002;23;20005;-88
2023/05/18 00:24:32;;;;;;;0.10;0.10;;;5.00;99.90;;;;;;6157212;23;20009;-87
2023/05/18 00:26:58;;;;;;;0.10;0.10;;;;;;;;;;6156379;23;20016;-87
2023/05/18 00:29:24;;;;;;;0.10;0.10;;;5.00;99.90;;;;;;6158285;23;20012;-88
2023/05/18 00:31:49;;;;;;;0.10;0.10;;;4.90;99.90;;;;;;6158470;23;20009;-88
2023/05/18 00:34:15;;;;;;;0.00;0.00;;;4.90;99.90;;;;;;6158556;23;20071;-89
2023/05/18 00:36:41;;;;;;;0.10;0.10;;;5.10;99.90;;;;;;6159310;23;20457;-88
2023/05/18 00:39:10;;;;;;;0.00;0.00;;;4.90;99.90;;;;;;6158686;23;20440;-87
2023/05/18 00:41:36;;;;;;;0.10;0.10;;;4.80;99.90;;;;;;6159087;23;20009;-88
2023/05/18 00:44:03;;;;;;;0.00;0.00;;;4.80;99.90;;;;;;6184768;23;20047;-88
2023/05/18 00:46:29;;;;;;;0.05;0.05;;;;;;;;;;6159106;23;20428;-87
2023/05/18 00:49:00;;;;;;;0.10;0.10;;;4.90;99.90;;;;;;6158854;23;20048;-89
2023/05/18 00:51:26;;;;;;;0.10;0.10;;;4.90;99.90;;;;;;6185140;23;20001;-88
2023/05/18 00:53:53;;;;;;;0.10;0.10;;;4.90;99.90;;;;;;6157982;23;20033;-89
2023/05/18 00:56:22;;;;;;;0.10;0.10;;;4.80;99.90;;;;;;6158013;23;20112;-88
2023/05/18 00:58:50;;;;;;;0.10;0.10;;;4.80;99.90;;;;;;6158216;23;20005;-87
2023/05/18 01:01:18;;;;;;;0.10;0.10;;;;;;;;;;6157722;23;20009;-88
2023/05/18 01:03:43;;;;;;;0.10;0.10;;;4.80;99.90;;;;;;6158114;23;20001;-89
2023/05/18 01:06:11;;;;;;;0.00;0.00;;;4.70;99.90;;;;;;6158007;23;19997;-87
2023/05/18 01:08:37;;;;;;;0.10;0.10;;;;;;;;;;6158462;23;20336;-87
2023/05/18 01:11:17;;;;;;;0.00;0.00;;;4.80;99.90;;;;;;6155211;23;20033;-88
2023/05/18 01:14:11;;;;;;;0.10;0.10;;;4.60;99.90;;;;;;6158287;23;20032;-89
2023/05/18 01:17:09;;;;;;;0.10;0.10;;;4.50;99.90;;;;;;6158216;23;20023;-87
2023/05/18 01:20:07;;;;;;;0.10;0.10;;;4.40;99.90;;;;;;6115812;23;20013;-88
2023/05/18 01:22:57;;;;;;;0.10;0.10;;;4.40;99.90;;;;;;6158796;23;20520;-87
2023/05/18 01:25:43;;;;;;;0.10;0.10;;;4.40;99.90;;;;;;6158374;23;20087;-89
2023/05/18 01:28:16;;;;;;;0.10;0.10;;;4.30;99.90;;;;;;6184101;23;20005;-88
2023/05/18 01:30:42;;;;;;;0.10;0.10;;;4.30;99.90;;;;;;6158215;23;20001;-88
2023/05/18 01:33:11;;;;;;;0.00;0.00;;;4.10;99.90;;;;;;6158763;23;20711;-89
2023/05/18 01:35:40;;;;;;;0.00;0.00;;;4.10;99.90;;;;;;6159222;23;20433;-88
2023/05/18 01:38:06;;;;;;;0.00;0.00;;;4.10;99.90;;;;;;6158367;23;20461;-87
2023/05/18 01:40:46;;;;;;;0.10;0.10;;;4.10;99.90;;;;;;6158170;23;20063;-88
2023/05/18 01:43:17;;;;;;;0.10;0.10;;;4.10;99.90;;;;;;6158897;23;20035;-87
2023/05/18 01:45:48;;;;;;;0.00;0.00;;;4.20;99.90;;;;;;6158782;23;19998;-88
2023/05/18 01:48:19;;;;;;;0.10;0.10;;;4.20;99.90;;;;;;6184601;23;20456;-88
2023/05/18 01:50:47;;;;;;;0.10;0.10;;;4.20;99.90;;;;;;6157829;23;20372;-86
2023/05/18 01:53:34;;;;;;;0.10;0.10;;;4.20;99.90;;;;;;6158473;23;20012;-87
2023/05/18 01:56:04;;;;;;;0.10;0.10;;;4.10;99.90;;;;;;6158416;23;20012;-87
2023/05/18 01:58:30;;;;;;;;;;;4.10;99.90;;;;;;6158433;23;20079;-88
2023/05/18 02:00:55;;;;;;;0.03;0.03;;;4.10;99.90;;;;;;6157827;23;20352;-88
2023/05/18 02:03:21;;;;;;;0.00;0.00;;;4.00;99.90;;;;;;6158865;23;20079;-88
2023/05/18 02:05:46;;;;;;;0.08;0.08;;;4.10;99.90;;;;;;6158320;23;20047;-88
2023/05/18 02:08:12;;;;;;;0.10;0.10;;;4.00;99.90;;;;;;6157741;23;20353;-87
2023/05/18 02:10:37;;;;;;;0.10;0.10;;;4.10;99.90;;;;;;6157851;23;20025;-87
2023/05/18 02:13:02;;;;;;;0.10;0.10;;;4.10;99.90;;;;;;6183629;23;20005;-88
2023/05/18 02:15:28;;;;;;;0.10;0.10;;;4.10;99.90;;;;;;6183253;23;20089;-86
2023/05/18 02:17:56;;;;;;;0.10;0.10;;;4.00;99.90;;;;;;6157853;23;20082;-88
2023/05/18 02:20:22;;;;;;;0.00;0.00;;;4.20;99.90;;;;;;6158134;23;20005;-89
2023/05/18 02:22:48;;;;;;;0.00;0.00;;;4.20;99.90;;;;;;6158278;23;20005;-87
2023/05/18 02:25:13;;;;;;;0.00;0.00;;;4.20;99.90;;;;;;6156785;23;20001;-88
2023/05/18 02:27:39;;;;;;;0.10;0.10;;;4.20;99.90;;;;;;6156962;23;20425;-88
2023/05/18 02:30:07;;;;;;;0.00;0.00;;;4.20;99.90;;;;;;6157482;23;20013;-88
2023/05/18 02:32:37;;;;;;;0.10;0.10;;;4.20;99.90;;;;;;6157826;23;20001;-88
2023/05/18 02:35:07;;;;;;;0.10;0.10;;;4.10;99.90;;;;;;6158260;23;20009;-87
2023/05/18 02:37:42;;;;;;;0.10;0.10;;;;;;;;;;6158001;23;20029;-87
2023/05/18 02:40:13;;;;;;;0.10;0.10;;;4.10;99.90;;;;;;6157150;23;20566;-88
2023/05/18 02:42:38;;;;;;;0.10;0.10;;;4.10;99.90;;;;;;6157953;23;20013;-88
2023/05/18 02:45:04;;;;;;;0.10;0.10;;;4.10;99.90;;;;;;6156231;23;20658;-87
2023/05/18 02:47:30;;;;;;;0.10;0.10;;;4.10;99.90;;;;;;6157803;23;20337;-88
2023/05/18 02:49:55;;;;;;;0.10;0.10;;;4.10;99.90;;;;;;6157045;23;20004;-89
2023/05/18 02:52:21;;;;;;;0.00;0.00;;;4.10;99.90;;;;;;6157156;23;20340;-87
2023/05/18 02:54:46;;;;;;;0.00;0.00;;;4.20;99.90;;;;;;6157451;23;20016;-88
2023/05/18 02:57:12;;;;;;;0.08;0.08;;;4.10;99.90;;;;;;6157854;23;20067;-89
2023/05/18 02:59:38;;;;;;;0.10;0.10;;;4.10;99.90;;;;;;6157454;23;20461;-88
2023/05/18 03:02:05;;;;;;;0.05;0.05;;;;;;;;;;6157801;23;20063;-89
2023/05/18 03:04:30;;;;;;;0.10;0.10;;;4.00;99.90;;;;;;6157471;23;20012;-89
2023/05/18 03:06:57;;;;;;;0.10;0.10;;;4.10;99.90;;;;;;6157633;23;20436;-88
2023/05/18 03:09:23;;;;;;;0.10;0.10;;;4.10;99.90;;;;;;6157473;23;20029;-88
2023/05/18 03:11:49;;;;;;;0.10;0.10;;;4.00;99.90;;;;;;6157405;23;20012;-88
2023/05/18 03:14:14;;;;;;;0.00;0.00;;;4.00;99.90;;;;;;6157676;23;20009;-87
2023/05/18 03:16:40;;;;;;;0.10;0.10;;;;;;;;;;6156716;23;20203;-87
2023/05/18 03:19:06;;;;;;;0.10;0.10;;;3.90;99.90;;;;;;6157564;23;20087;-88
2023/05/18 03:21:35;;;;;;;0.10;0.10;;;3.90;99.90;;;;;;6157320;23;19997;-88
2023/05/18 03:24:01;;;;;;;0.00;0.00;;;3.80;99.90;;;;;;6157589;23;20050;-87
2023/05/18 03:26:29;;;;;;;0.00;0.00;;;3.80;99.90;;;;;;6157821;23;20009;-88
2023/05/18 03:28:56;;;;;;;0.10;0.10;;;3.70;99.90;;;;;;6158513;23;20017;-88
2023/05/18 03:31:21;;;;;;;0.10;0.10;;;3.70;99.90;;;;;;6157139;23;20084;-88
2023/05/18 03:33:47;;;;;;;0.00;0.00;;;3.70;99.90;;;;;;6157772;23;20452;-87
2023/05/18 03:36:12;;;;;;;0.00;0.00;;;3.70;99.90;;;;;;6158330;23;20001;-88
2023/05/18 03:38:38;;;;;;;0.05;0.05;;;3.70;99.90;;;;;;6157935;23;19997;-89
2023/05/18 03:41:03;;;;;;;0.10;0.10;;;3.60;99.90;;;;;;6157793;23;20008;-88
2023/05/18 03:43:31;;;;;;;0.00;0.00;;;3.70;99.90;;;;;;6157461;23;20001;-90
2023/05/18 03:45:57;;;;;;;0.10;0.10;;;3.60;99.90;;;;;;6157987;23;20005;-88
2023/05/18 03:48:23;;;;;;;0.00;0.00;;;3.50;99.90;;;;;;6157777;23;20043;-88
2023/05/18 03:50:49;;;;;;;0.10;0.10;;;3.50;99.90;;;;;;6157465;23;20012;-88
2023/05/18 03:53:17;;;;;;;0.10;0.10;;;;;;;;;;6157927;23;20556;-88
2023/05/18 03:55:44;;;;;;;0.08;0.08;;;;;;;;;;6157616;23;20052;-88
2023/05/18 03:58:09;;;;;;;0.10;0.10;;;3.40;99.90;;;;;;6157031;23;20009;-89
2023/05/18 04:00:35;;;;;;;0.10;0.10;;;3.50;99.90;;;;;;6154288;23;20011;-88
2023/05/18 04:03:02;;;;;;;0.10;0.10;;;;;;;;;;6156812;23;20433;-88
2023/05/18 04:05:27;;;;;;;0.00;0.00;;;3.50;99.90;;;;;;6158350;23;20315;-88
2023/05/18 04:07:56;;;;;;;0.10;0.10;;;3.40;99.90;;;;;;6159093;23;20001;-88
2023/05/18 04:10:22;;;;;;;0.03;0.03;;;3.50;99.90;;;;;;6157382;23;20005;-88
2023/05/18 04:12:47;;;;;;;0.00;0.00;;;3.50;99.90;;;;;;6159577;23;20012;-88
2023/05/18 04:15:15;;;;;;;0.05;0.05;;;3.60;99.90;;;;;;6183481;23;20029;-89
2023/05/18 04:17:44;;;;;;;0.10;0.10;;;3.60;99.90;;;;;;6157994;23;20009;-88
2023/05/18 04:20:13;;;;;;;0.10;0.10;;;3.60;99.90;;;;;;6160898;23;20055;-88
2023/05/18 04:22:46;;;;;;;0.10;0.10;;;3.50;99.90;;;;;;6159167;23;20084;-88
2023/05/18 04:25:15;;;;;;;0.10;0.10;;;3.60;99.90;;;;;;6158105;23;20005;-88
2023/05/18 04:27:42;;;;;;;0.10;0.10;;;3.60;99.90;;;;;;6157721;23;20092;-88
2023/05/18 04:30:11;;;;;;;0.10;0.10;;;3.60;99.90;;;;;;6157655;23;20005;-89
2023/05/18 04:32:41;;;;;;;0.10;0.10;;;3.70;99.90;;;;;;6158921;23;20005;-88
2023/05/18 04:35:08;;;;;;;0.10;0.10;;;3.70;99.90;;;;;;6158793;23;20013;-89
2023/05/18 04:37:34;;;;;;;0.00;0.00;;;3.80;99.90;;;;;;6159138;23;20001;-88
2023/05/18 04:40:06;;;;;;;0.10;0.10;;;3.80;99.90;;;;;;6158450;23;20005;-89
2023/05/18 04:42:33;;;;;;;0.10;0.10;;;3.90;99.90;;;;;;6158355;23;20001;-89
2023/05/18 04:44:59;;;;;;;0.00;0.00;;;;;;;;;;6158666;23;20005;-88
2023/05/18 04:47:25;;;;;;;0.10;0.10;;;;;;;;;;6158301;23;20448;-88
2023/05/18 04:49:54;;;;;;;0.10;0.10;;;4.00;99.90;;;;;;6158472;23;20111;-88
2023/05/18 04:52:20;;;;;;;0.10;0.10;;;4.10;99.90;;;;;;6157939;23;20005;-88
2023/05/18 04:54:46;;;;;;;0.10;0.10;;;;;;;;;;6158869;23;20016;-88
2023/05/18 04:57:12;;;;;;;0.00;0.00;;;4.10;99.90;;;;;;6159101;23;20008;-88
2023/05/18 04:59:40;;;;;;;0.00;0.00;;;4.20;99.90;;;;;;6158413;23;20019;-88
2023/05/18 05:02:05;;;;;;;0.00;0.00;;;4.30;99.90;;;;;;6158619;23;20437;-88
2023/05/18 05:04:31;;;;;;;0.10;0.10;;;4.40;99.90;;;;;;6158657;23;20093;-88
2023/05/18 05:06:57;;;;;;;0.03;0.03;;;4.60;99.90;;;;;;6158729;23;20028;-89
2023/05/18 05:09:22;;;;;;;0.00;0.00;;;4.70;99.90;;;;;;6159418;23;20008;-88
2023/05/18 05:11:47;;;;;;;0.10;0.10;;;4.90;99.90;;;;;;6158313;23;20001;-88
2023/05/18 05:14:13;;;;;;;0.00;0.00;;;;;;;;;;6158151;23;20091;-89
2023/05/18 05:16:39;;;;;;;0.10;0.10;;;5.10;99.90;;;;;;6158645;23;20008;-88
2023/05/18 05:19:05;;;;;;;0.00;0.00;;;5.20;99.90;;;;;;6158749;23;20353;-88
2023/05/18 05:21:31;;;;;;;0.10;0.10;;;5.40;99.90;;;;;;6158710;23;20005;-89
2023/05/18 05:23:57;;;;;;;0.00;0.00;;;5.80;99.90;;;;;;6158770;23;20054;-89
2023/05/18 05:26:22;;;;;;;0.10;0.10;;;6.10;99.90;;;;;;6158639;23;20322;-88
2023/05/18 05:28:48;;;;;;;0.10;0.10;;;6.20;99.90;;;;;;6157797;23;20001;-89
2023/05/18 05:31:14;;;;;;;0.10;0.10;;;6.20;99.90;;;;;;6159273;23;20429;-88
2023/05/18 05:33:40;;;;;;;0.10;0.10;;;6.50;99.90;;;;;;6158418;23;20051;-88
2023/05/18 05:36:07;;;;;;;0.10;0.10;;;7.90;99.90;;;;;;6159101;23;20005;-88
2023/05/18 05:38:32;;;;;;;0.10;0.10;;;6.70;99.90;;;;;;6157440;23;20001;-88
2023/05/18 05:40:57;;;;;;;0.10;0.10;;;6.80;99.90;;;;;;6157944;23;20005;-88
2023/05/18 05:43:23;;;;;;;0.00;0.00;;;6.80;99.90;;;;;;6159109;23;20005;-89
2023/05/18 05:45:49;;;;;;;0.00;0.00;;;;;;;;;;6157866;23;19997;-89
2023/05/18 05:48:15;;;;;;;0.10;0.10;;;6.90;99.90;;;;;;6158280;23;20001;-89
2023/05/18 05:50:40;;;;;;;0.10;0.10;;;7.10;99.90;;;;;;6157972;23;20009;-90
2023/05/18 05:53:06;;;;;;;0.10;0.10;;;;;;;;;;6157777;23;20069;-88
2023/05/18 05:55:32;;;;;;;0.10;0.10;;;7.10;99.90;;;;;;6157011;23;20127;-90
2023/05/18 05:57:57;;;;;;;0.10;0.10;;;7.20;99.90;;;;;;6184393;23;20306;-88
2023/05/18 06:00:24;;;;;;;0.10;0.10;;;7.00;99.90;;;;;;6158339;23;20005;-88
2023/05/18 06:02:49;;;;;;;0.10;0.10;;;7.10;99.90;;;;;;6158197;23;20028;-88
2023/05/18 06:05:15;;;;;;;0.00;0.00;;;7.30;99.90;;;;;;6158706;23;20020;-87
2023/05/18 06:07:40;;;;;;;0.10;0.10;;;7.60;99.90;;;;;;6157972;23;20024;-88
2023/05/18 06:10:07;;;;;;;0.10;0.10;;;7.70;99.90;;;;;;6158626;23;20001;-88
2023/05/18 06:12:32;;;;;;;0.10;0.10;;;7.50;99.90;;;;;;6157940;23;20447;-88
2023/05/18 06:14:58;;;;;;;0.10;0.10;;;7.60;99.90;;;;;;6157904;23;20063;-88
2023/05/18 06:17:25;;;;;;;0.10;0.10;;;7.80;99.90;;;;;;6158458;23;20008;-87
2023/05/18 06:19:51;;;;;;;0.10;0.10;;;;;;;;;;6158324;23;20492;-87
2023/05/18 06:22:16;;;;;;;0.10;0.10;;;7.80;99.90;;;;;;6158766;23;20031;-87
2023/05/18 06:24:42;;;;;;;0.10;0.10;;;7.80;99.90;;;;;;6155672;23;20032;-88
2023/05/18 06:27:07;;;;;;;0.00;0.00;;;7.90;99.90;;;;;;6157860;23;20032;-89
2023/05/18 06:29:33;;;;;;;0.00;0.00;;;8.00;99.90;;;;;;6158014;23;20092;-87
2023/05/18 06:31:59;;;;;;;0.03;0.03;;;8.10;99.90;;;;;;6157827;23;20055;-87
2023/05/18 06:34:24;;;;;;;0.10;0.10;;;8.10;99.90;;;;;;6158483;23;20005;-87
2023/05/18 06:36:50;;;;;;;0.00;0.00;;;;;;;;;;6194747;23;20019;-85
2023/05/18 06:39:16;;;;;;;0.00;0.00;;;;;;;;;;6212864;23;20100;-85
2023/05/18 06:41:44;;;;;;;0.03;0.03;;;;;;;;;;6213019;23;20055;-83
2023/05/18 06:44:10;;;;;;;0.10;0.10;;;;;;;;;;6214731;23;20051;-85
2023/05/18 06:46:36;;;;;;;0.00;0.00;;;8.20;99.90;;;;;;6212917;23;20005;-85
2023/05/18 06:49:02;;;;;;;0.10;0.10;;;8.20;99.90;;;;;;6213307;23;20001;-85
2023/05/18 06:51:27;;;;;;;0.10;0.10;;;8.40;99.90;;;;;;6213454;23;20004;-85
2023/05/18 06:53:53;;;;;;;0.08;0.08;;;;;;;;;;6213131;23;20295;-83
2023/05/18 06:56:20;;;;;;;0.10;0.10;;;;;;;;;;6213465;23;20429;-86
2023/05/18 06:58:46;;;;;;;0.10;0.10;;;;;;;;;;6212697;23;20004;-84
2023/05/18 07:01:12;;;;;;;0.10;0.10;;;8.80;99.90;;;;;;6213064;23;20062;-84
2023/05/18 07:03:38;;;;;;;0.00;0.00;;;;;;;;;;6212442;23;20001;-84
2023/05/18 07:06:04;;;;;;;0.10;0.10;;;8.80;99.90;;;;;;6212231;23;20063;-84
2023/05/18 07:08:30;;;;;;;0.10;0.10;;;8.80;99.90;;;;;;6211884;23;20060;-83
2023/05/18 07:10:56;;;;;;;0.00;0.00;;;;;;;;;;6212797;23;20020;-85
2023/05/18 07:13:23;;;;;;;0.00;0.00;;;;;;;;;;6212874;23;20036;-84
2023/05/18 07:15:49;;;;;;;0.05;0.05;;;;;;;;;;6212581;23;20092;-84
2023/05/18 07:18:15;;;;;;;0.08;0.08;;;;;;;;;;6213759;23;20091;-84
2023/05/18 07:20:41;;;;;;;0.10;0.10;;;;;;;;;;6213697;23;20456;-86
2023/05/18 07:23:07;;;;;;;0.10;0.10;;;;;;;;;;6211292;23;20012;-85
2023/05/18 07:25:32;;;;;;;0.10;0.10;;;9.00;99.90;;;;;;6211241;23;20005;-85
2023/05/18 07:27:58;;;;;;;0.10;0.10;;;;;;;;;;6211751;23;19997;-86
2023/05/18 07:30:27;;;;;;;0.10;0.10;;;9.00;99.90;;;;;;6212888;23;20011;-86
2023/05/18 07:32:53;;;;;;;0.10;0.10;;;;;;;;;;6211188;23;20012;-84
2023/05/18 07:35:20;;;;;;;0.10;0.10;;;;;;;;;;6211731;23;20013;-86
2023/05/18 07:37:46;;;;;;;0.10;0.10;;;;;;;;;;6213011;23;20036;-86
2023/05/18 07:40:12;;;;;;;0.10;0.10;;;9.30;99.90;;;;;;6212039;23;20015;-85
2023/05/18 07:42:38;;;;;;;0.10;0.10;;;9.40;99.90;;;;;;6213292;23;20005;-85
2023/05/18 07:45:04;;;;;;;0.10;0.10;;;9.60;99.90;;;;;;6213551;23;20004;-86
2023/05/18 07:47:30;;;;;;;0.00;0.00;;;;;;;;;;6212804;23;20020;-84
2023/05/18 07:49:56;;;;;;;0.10;0.10;;;;;;;;;;6213213;23;20434;-86
2023/05/18 07:52:22;;;;;;;0.10;0.10;;;9.50;99.90;;;;;;6212460;23;20480;-85
2023/05/18 07:54:48;;;;;;;0.00;0.00;;;;;;;;;;6211590;23;20039;-86
2023/05/18 07:57:13;;;;;;;0.00;0.00;;;9.60;99.90;;;;;;6214399;23;20005;-86
2023/05/18 07:59:39;;;;;;;0.10;0.10;;;9.60;99.90;;;;;;6212461;23;20017;-85
2023/05/18 08:02:05;;;;;;;0.00;0.00;;;;;;;;;;6214760;23;20000;-86
2023/05/18 08:04:30;;;;;;;0.00;0.00;;;9.80;99.90;;;;;;6212800;23;20000;-86
2023/05/18 08:06:59;;;;;;;0.10;0.10;;;;;;;;;;6213438;23;20011;-85
2023/05/18 08:09:27;;;;;;;0.05;0.05;;;10.00;99.90;;;;;;6213431;23;20008;-86
2023/05/18 08:11:53;;;;;;;0.00;0.00;;;10.00;99.90;;;;;;6213143;23;20009;-87
2023/05/18 08:14:19;;;;;;;0.10;0.10;;;10.00;99.90;;;;;;6212734;23;20009;-85
2023/05/18 08:16:45;;;;;;;0.10;0.10;;;;;;;;;;6212657;23;20062;-85
2023/05/18 08:19:11;;;;;;;0.00;0.00;;;;;;;;;;6214166;23;20004;-83
2023/05/18 08:21:36;;;;;;;0.10;0.10;;;10.40;99.50;;;;;;6213882;23;20445;-85
2023/05/18 08:24:03;;;;;;;0.00;0.00;;;;;;;;;;6213247;23;20011;-86
2023/05/18 08:26:28;;;;;;;0.10;0.10;;;10.40;99.90;;;;;;6212419;23;20014;-86
2023/05/18 08:28:54;;;;;;;0.00;0.00;;;;;;;;;;6212740;23;20513;-87
2023/05/18 08:31:20;;;;;;;0.10;0.10;;;;;;;;;;6214591;23;20005;-87
2023/05/18 08:33:47;;;;;;;0.10;0.10;;;;;;;;;;6212984;23;20100;-86
2023/05/18 08:36:13;;;;;;;0.10;0.10;;;10.90;99.90;;;;;;6214590;23;20132;-87
2023/05/18 08:38:38;;;;;;;0.10;0.10;;;10.90;99.90;;;;;;6213066;23;20005;-87
2023/05/18 08:41:13;;;;;;;0.00;0.00;;;10.90;99.50;;;;;;6214476;23;20012;-86
2023/05/18 08:43:44;;;;;;;0.00;0.00;;;11.10;99.00;;;;;;6212901;23;20031;-84
2023/05/18 08:46:18;;;;;;;0.10;0.10;;;11.30;98.40;;;;;;6188347;23;20034;-85
2023/05/18 08:48:45;;;;;;;0.00;0.00;;;11.30;98.40;;;;;;6213384;23;20434;-86
2023/05/18 08:51:13;;;;;;;0.00;0.00;;;11.20;99.40;;;;;;6217432;23;20095;-86
2023/05/18 08:53:39;;;;;;;0.10;0.10;;;;;;;;;;6216831;23;20011;-86
2023/05/18 08:56:05;;;;;;;0.00;0.00;;;11.00;99.20;;;;;;6214164;23;20005;-86
2023/05/18 08:58:38;;;;;;;0.10;0.10;;;11.10;99.80;;;;;;6213913;23;20008;-88
2023/05/18 09:01:04;;;;;;;0.10;0.10;;;;;;;;;;6215225;23;20060;-87
2023/05/18 09:03:30;;;;;;;0.00;0.00;;;;;;;;;;6217113;23;20007;-87
2023/05/18 09:05:58;;;;;;;0.00;0.00;;;11.70;97.50;;;;;;6215645;23;20001;-86
2023/05/18 09:08:24;;;;;;;0.00;0.00;;;;;;;;;;6215547;23;20445;-87
2023/05/18 09:10:50;;;;;;;0.00;0.00;;;11.70;96.60;;;;;;6214735;23;20004;-87
2023/05/18 09:13:19;;;;;;;0.00;0.00;;;11.70;96.80;;;;;;6213820;23;20015;-86
2023/05/18 09:15:45;;;;;;;0.10;0.10;;;11.80;96.40;;;;;;6215817;23;20011;-84
2023/05/18 09:18:11;;;;;;;0.00;0.00;;;;;;;;;;6213196;23;20036;-86
2023/05/18 09:20:37;;;;;;;0.00;0.00;;;11.60;96.30;;;;;;6214274;23;20011;-85
2023/05/18 09:23:04;;;;;;;0.00;0.00;;;11.50;96.70;;;;;;6213139;23;20009;-87
2023/05/18 09:25:33;;;;;;;0.00;0.00;;;11.40;97.10;;;;;;6213798;23;20032;-84
2023/05/18 09:27:59;;;;;;;0.00;0.00;;;;;;;;;;6214237;23;20052;-86
2023/05/18 09:30:25;;;;;;;0.00;0.00;;;11.60;97.50;;;;;;6213682;23;20015;-84
2023/05/18 09:32:51;;;;;;;0.00;0.00;;;11.70;97.40;;;;;;6215921;23;20009;-86
2023/05/18 09:35:18;;;;;;;0.10;0.10;;;;;;;;;;6214232;23;20032;-85
2023/05/18 09:37:43;;;;;;;0.00;0.00;;;11.80;96.20;;;;;;6213975;23;20341;-85
2023/05/18 09:40:09;;;;;;;0.10;0.10;;;11.70;97.70;;;;;;6214018;23;20015;-86
2023/05/18 09:42:39;;;;;;;0.10;0.10;;;11.80;96.80;;;;;;6213523;23;20000;-85
2023/05/18 09:45:24;;;;;;;;;;;11.80;97.00;;;;;;6217021;23;20370;-85
2023/05/18 09:47:50;;;;;;;0.00;0.00;;;11.70;97.20;;;;;;6214403;23;19908;-85
2023/05/18 09:50:23;;;;;;;0.00;0.00;;;12.00;95.70;;;;;;6214180;23;20015;-87
2023/05/18 09:52:49;;;;;;;0.00;0.00;;;11.80;96.70;;;;;;6213600;23;20004;-86
2023/05/18 09:55:15;;;;;;;0.10;0.10;;;11.80;95.90;;;;;;6214230;23;20015;-86
2023/05/18 09:57:50;;;;;;;0.05;0.05;;;11.90;96.10;;;;;;6213336;23;20009;-85
2023/05/18 10:00:18;;;;;;;0.00;0.00;;;12.00;95.90;;;;;;6214210;23;20533;-87
2023/05/18 10:02:51;;;;;;;0.00;0.00;;;11.80;95.10;;;;;;6213697;23;20076;-87
2023/05/18 10:05:30;;;;;;;0.10;0.10;;;11.80;95.30;;;;;;6213792;23;20005;-87
2023/05/18 10:07:56;;;;;;;0.00;0.00;;;12.00;96.30;;;;;;6213835;23;20040;-87
2023/05/18 10:10:24;;;;;;;0.00;0.00;;;11.90;96.40;;;;;;6213781;23;20004;-86
2023/05/18 10:12:51;;;;;;;0.00;0.00;;;12.30;95.00;;;;;;6213413;23;20426;-85
2023/05/18 10:15:19;;;;;;;0.00;0.00;;;12.30;94.70;;;;;;6213384;23;20008;-86
2023/05/18 10:17:46;;;;;;;0.00;0.00;;;12.30;94.90;;;;;;6214351;23;20008;-86
2023/05/18 10:20:16;;;;;;;0.00;0.00;;;12.40;95.90;;;;;;6215849;23;20341;-86
2023/05/18 10:22:43;;;;;;;;;;;12.40;96.20;;;;;;6214726;23;20005;-86
2023/05/18 10:25:10;;;;;;;0.00;0.00;;;12.70;95.90;;;;;;6214143;23;19904;-85
2023/05/18 10:27:36;;;;;;;0.00;0.00;;;;;;;;;;6212435;23;20012;-86
2023/05/18 10:30:06;;;;;;;0.00;0.00;;;13.00;95.20;;;;;;6213124;23;20110;-87
2023/05/18 10:32:34;;;;;;;;;;;13.00;95.30;;;;;;6215268;23;20008;-86
2023/05/18 10:35:01;;;;;;;0.00;0.00;;;13.00;94.00;;;;;;6214497;23;20329;-85
2023/05/18 10:37:29;;;;;;;0.00;0.00;;;13.00;94.10;;;;;;6188915;23;20013;-85
2023/05/18 10:39:56;;;;;;;0.00;0.00;;;;;;;;;;6214157;23;20312;-87
2023/05/18 10:42:22;;;;;;;0.00;0.00;;;;;;;;;;6214358;23;20001;-86
2023/05/18 10:44:51;;;;;;;0.00;0.00;;;13.20;94.40;;;;;;6213995;23;20011;-86
2023/05/18 10:47:19;;;;;;;0.00;0.00;;;13.30;94.20;;;;;;6213831;23;20452;-86
2023/05/18 10:49:48;;;;;;;0.00;0.00;;;13.40;93.20;;;;;;6214094;23;20104;-86
2023/05/18 10:52:15;;;;;;;0.00;0.00;;;13.40;92.50;;;;;;6214512;23;20047;-87
2023/05/18 10:54:42;;;;;;;0.00;0.00;;;13.30;92.70;;;;;;6210806;23;20040;-85
2023/05/18 10:57:12;;;;;;;0.00;0.00;;;13.50;92.90;;;;;;6215841;23;20004;-87
2023/05/18 10:59:43;;;;;;;0.00;0.00;;;13.50;92.90;;;;;;6213307;23;20016;-86
2023/05/18 11:02:12;;;;;;;0.00;0.00;;;13.40;93.90;;;;;;6213422;23;20001;-86
2023/05/18 11:04:39;;;;;;;0.00;0.00;;;13.30;93.60;;;;;;6213461;23;20000;-85
2023/05/18 11:07:09;;;;;;;0.00;0.00;;;13.20;93.80;;;;;;6213871;23;20406;-87
2023/05/18 11:09:35;;;;;;;0.00;0.00;;;;;;;;;;6213505;23;20008;-87
2023/05/18 11:12:01;;;;;;;0.00;0.00;;;;;;;;;;6213742;23;20499;-87
2023/05/18 11:14:28;;;;;;;0.00;0.00;;;13.80;92.80;;;;;;6213843;23;20004;-86
2023/05/18 11:17:15;;;;;;;0.00;0.00;;;14.00;94.40;;;;;;6214053;23;20051;-87
2023/05/18 11:20:07;;;;;;;0.00;0.00;;;14.10;93.00;;;;;;6213607;23;20004;-87
2023/05/18 11:22:58;;;;;;;0.00;0.00;;;14.10;93.30;;;;;;6214835;23;20015;-87
2023/05/18 11:25:47;;;;;;;0.00;0.00;;;14.00;91.40;;;;;;6213503;23;20008;-86
2023/05/18 11:28:12;;;;;;;0.00;0.00;;;13.90;90.80;;;;;;6213521;23;20000;-86
2023/05/18 11:30:43;;;;;;;0.00;0.00;;;;;;;;;;6213924;23;20005;-83
2023/05/18 11:33:13;;;;;;;0.00;0.00;;;14.00;90.80;;;;;;6213123;23;20008;-85
2023/05/18 11:36:02;;;;;;;0.00;0.00;;;14.20;91.60;;;;;;6210367;23;20033;-87
2023/05/18 11:38:54;;;;;;;0.00;0.00;;;14.40;90.50;;;;;;6212722;23;20013;-86
2023/05/18 11:41:34;;;;;;;0.00;0.00;;;14.40;90.90;;;;;;6212488;23;20248;-84
2023/05/18 11:44:08;;;;;;;0.00;0.00;;;14.40;91.00;;;;;;6212860;23;20008;-86
2023/05/18 11:46:35;;;;;;;0.00;0.00;;;14.40;91.30;;;;;;6213322;23;20007;-86
2023/05/18 11:49:06;;;;;;;0.00;0.00;;;14.40;91.40;;;;;;6209703;23;20343;-86
2023/05/18 11:51:32;;;;;;;0.00;0.00;;;14.40;92.80;;;;;;6213574;23;20071;-86
2023/05/18 11:53:58;;;;;;;0.00;0.00;;;;;;;;;;6213047;23;20011;-89
2023/05/18 11:56:25;;;;;;;0.00;0.00;;;14.60;91.20;;;;;;6214578;23;20004;-88
2023/05/18 11:59:11;;;;;;;0.00;0.00;;;14.80;90.90;;;;;;6214957;23;20000;-88
2023/05/18 12:01:37;;;;;;;0.00;0.00;;;14.80;90.70;;;;;;6212716;23;20019;-87
2023/05/18 12:04:03;;;;;;;0.00;0.00;;;14.80;90.70;;;;;;6213130;23;20036;-87
2023/05/18 12:06:29;;;;;;;0.00;0.00;;;14.60;90.10;;;;;;6210770;23;20024;-87
2023/05/18 12:08:55;;;;;;;0.00;0.00;;;;;;;;;;6212210;23;20008;-85
2023/05/18 12:11:21;;;;;;;0.00;0.00;;;;;;;;;;6212624;23;20430;-85
2023/05/18 12:13:50;;;;;;;0.00;0.00;;;15.00;91.80;;;;;;6212239;23;20012;-86
2023/05/18 12:16:16;;;;;;;0.00;0.00;;;15.20;90.30;;;;;;6213270;23;20008;-85
2023/05/18 12:18:48;;;;;;;0.00;0.00;;;15.20;90.20;;;;;;6212129;23;20035;-87
2023/05/18 12:21:15;;;;;;;0.00;0.00;;;;;;;;;;6215078;23;20000;-86
2023/05/18 12:23:41;;;;;;;0.00;0.00;;;15.10;91.50;;;;;;6215858;23;20004;-87
2023/05/18 12:26:06;;;;;;;0.00;0.00;;;15.10;91.30;;;;;;6216663;23;20390;-85
2023/05/18 12:28:32;;;;;;;0.00;0.00;;;15.20;90.60;;;;;;6213965;23;20012;-86
2023/05/18 12:30:58;;;;;;;0.00;0.00;;;15.20;89.90;;;;;;6213505;23;20000;-87
2023/05/18 12:33:24;;;;;;;0.00;0.00;;;16.60;90.60;;;;;;6215495;23;20004;-87
2023/05/18 12:35:49;;;;;;;0.00;0.00;;;15.40;90.80;;;;;;6213016;23;20012;-87
2023/05/18 12:38:16;;;;;;;0.10;0.10;;;15.50;90.00;;;;;;6213502;23;20412;-84
2023/05/18 12:40:47;;;;;;;0.00;0.00;;;15.70;88.80;;;;;;6213856;23;20431;-87
2023/05/18 12:43:13;;;;;;;0.00;0.00;;;15.70;88.70;;;;;;6214692;23;20008;-87
2023/05/18 12:45:39;;;;;;;0.00;0.00;;;;;;;;;;6214377;23;20032;-87
2023/05/18 12:48:10;;;;;;;0.00;0.00;;;15.70;88.20;;;;;;6214331;23;20007;-87
2023/05/18 13:06:41;;;;;;;0.00;0.00;;;;;;;;;;6182927;23;20458;-90
2023/05/18 13:09:10;;;;;;;0.00;0.00;;;16.10;88.00;;;;;;6157707;23;20013;-90
2023/05/18 13:14:06;;;;;;;0.00;0.00;;;16.30;84.20;;;;;;6159674;23;20071;-88
2023/05/18 13:16:35;;;;;;;0.00;0.00;;;15.60;84.20;;;;;;6130933;23;20473;-88
2023/05/18 13:19:04;;;;;;;0.00;0.00;;;16.10;85.30;;;;;;6126542;23;20001;-89
2023/05/18 13:21:30;;;;;;;0.00;0.00;;;;;;;;;;6126023;23;20009;-87
2023/05/18 13:23:56;;;;;;;0.00;0.00;;;;;;;;;;6130791;23;20056;-88
2023/05/18 13:26:23;;;;;;;0.00;0.00;;;16.40;82.50;;;;;;6129231;23;20010;-88
2023/05/18 13:28:51;;;;;;;0.00;0.00;;;15.90;82.70;;;;;;6130388;23;20032;-88
2023/05/18 13:31:21;;;;;;;0.00;0.00;;;16.90;85.10;;;;;;6130485;23;20088;-89
2023/05/18 13:33:48;;;;;;;0.00;0.00;;;17.10;84.10;;;;;;6125794;23;20013;-90
2023/05/18 13:36:14;;;;;;;0.00;0.00;;;17.20;84.40;;;;;;6126993;23;20041;-89